sensor_id;sensor_type;location;lat;lon;timestamp;pressure;altitude;pressure_sealevel;temperature;humidity
64872;BME280;51351;51.450;6.614;2023-07-31T00:01:36;100933.44;;;16.43;88.08
64872;BME280;51351;51.450;6.614;2023-07-31T00:04:02;100941.50;;;16.41;88.31
64872;BME280;51351;51.450;6.614;2023-07-31T00:06:28;100936.38;;;16.40;88.54
64872;BME280;51351;51.450;6.614;2023-07-31T00:08:54;100934.59;;;16.40;88.25
64872;BME280;51351;51.450;6.614;2023-07-31T00:11:23;100938.84;;;16.41;88.19
64872;BME280;51351;51.450;6.614;2023-07-31T00:13:49;100931.47;;;16.45;88.33
64872;BME280;51351;51.450;6.614;2023-07-31T00:16:16;100936.22;;;16.41;88.03
64872;BME280;51351;51.450;6.614;2023-07-31T00:18:42;100921.41;;;16.40;88.80
64872;BME280;51351;51.450;6.614;2023-07-31T00:21:08;100924.03;;;16.40;88.33
64872;BME280;51351;51.450;6.614;2023-07-31T00:23:34;100912.66;;;16.40;88.00
64872;BME280;51351;51.450;6.614;2023-07-31T00:26:00;100921.56;;;16.39;88.22
64872;BME280;51351;51.450;6.614;2023-07-31T00:28:26;100920.56;;;16.40;88.09
64872;BME280;51351;51.450;6.614;2023-07-31T00:30:54;100931.78;;;16.42;87.98
64872;BME280;51351;51.450;6.614;2023-07-31T00:33:20;100907.22;;;16.41;88.19
64872;BME280;51351;51.450;6.614;2023-07-31T00:35:46;100925.53;;;16.43;87.80
64872;BME280;51351;51.450;6.614;2023-07-31T00:38:12;100917.75;;;16.41;87.43
64872;BME280;51351;51.450;6.614;2023-07-31T00:40:39;100925.66;;;16.41;87.65
64872;BME280;51351;51.450;6.614;2023-07-31T00:43:05;100916.97;;;16.41;87.51
64872;BME280;51351;51.450;6.614;2023-07-31T00:45:32;100920.56;;;16.40;87.63
64872;BME280;51351;51.450;6.614;2023-07-31T00:47:58;100919.59;;;16.41;87.80
64872;BME280;51351;51.450;6.614;2023-07-31T00:50:25;100922.09;;;16.42;88.00
64872;BME280;51351;51.450;6.614;2023-07-31T00:52:51;100925.66;;;16.41;87.68
64872;BME280;51351;51.450;6.614;2023-07-31T00:55:17;100916.13;;;16.40;88.09
64872;BME280;51351;51.450;6.614;2023-07-31T00:57:44;100924.03;;;16.40;87.87
64872;BME280;51351;51.450;6.614;2023-07-31T01:00:11;100909.06;;;16.41;87.63
64872;BME280;51351;51.450;6.614;2023-07-31T01:02:37;100915.81;;;16.43;87.80
64872;BME280;51351;51.450;6.614;2023-07-31T01:05:04;100911.38;;;16.44;87.81
64872;BME280;51351;51.450;6.614;2023-07-31T01:07:56;100908.06;;;16.42;87.75
64872;BME280;51351;51.450;6.614;2023-07-31T01:10:34;100903.78;;;16.41;87.76
64872;BME280;51351;51.450;6.614;2023-07-31T01:13:03;100903.78;;;16.41;87.28
64872;BME280;51351;51.450;6.614;2023-07-31T01:15:29;100914.19;;;16.42;87.18
64872;BME280;51351;51.450;6.614;2023-07-31T01:17:55;100908.06;;;16.42;87.64
64872;BME280;51351;51.450;6.614;2023-07-31T01:20:23;100927.38;;;16.42;87.30
64872;BME280;51351;51.450;6.614;2023-07-31T01:26:03;100910.56;;;16.43;87.09
64872;BME280;51351;51.450;6.614;2023-07-31T01:31:53;100908.22;;;16.40;86.44
64872;BME280;51351;51.450;6.614;2023-07-31T01:34:21;100905.59;;;16.40;86.61
64872;BME280;51351;51.450;6.614;2023-07-31T01:36:48;100898.50;;;16.41;86.74
64872;BME280;51351;51.450;6.614;2023-07-31T01:39:14;100895.88;;;16.41;87.03
64872;BME280;51351;51.450;6.614;2023-07-31T01:41:41;100896.03;;;16.39;86.51
64872;BME280;51351;51.450;6.614;2023-07-31T01:44:07;100912.38;;;16.35;86.35
64872;BME280;51351;51.450;6.614;2023-07-31T01:46:34;100899.19;;;16.35;86.45
64872;BME280;51351;51.450;6.614;2023-07-31T01:49:00;100896.53;;;16.35;86.67
64872;BME280;51351;51.450;6.614;2023-07-31T01:51:26;100899.19;;;16.35;86.22
64872;BME280;51351;51.450;6.614;2023-07-31T01:53:52;100895.53;;;16.36;86.43
64872;BME280;51351;51.450;6.614;2023-07-31T01:56:18;100894.38;;;16.38;86.03
64872;BME280;51351;51.450;6.614;2023-07-31T01:58:44;100890.28;;;16.36;85.73
64872;BME280;51351;51.450;6.614;2023-07-31T02:01:10;100875.44;;;16.35;85.72
64872;BME280;51351;51.450;6.614;2023-07-31T02:03:36;100893.75;;;16.36;85.68
64872;BME280;51351;51.450;6.614;2023-07-31T02:06:02;100891.09;;;16.36;86.07
64872;BME280;51351;51.450;6.614;2023-07-31T02:08:28;100887.47;;;16.37;86.11
64872;BME280;51351;51.450;6.614;2023-07-31T02:10:54;100885.00;;;16.36;85.62
64872;BME280;51351;51.450;6.614;2023-07-31T02:13:20;100884.38;;;16.34;85.87
64872;BME280;51351;51.450;6.614;2023-07-31T02:15:46;100883.38;;;16.35;85.76
64872;BME280;51351;51.450;6.614;2023-07-31T02:18:12;100877.25;;;16.34;85.19
64872;BME280;51351;51.450;6.614;2023-07-31T02:20:38;100885.66;;;16.38;85.31
64872;BME280;51351;51.450;6.614;2023-07-31T02:23:04;100884.19;;;16.35;84.90
64872;BME280;51351;51.450;6.614;2023-07-31T02:25:30;100880.56;;;16.36;85.03
64872;BME280;51351;51.450;6.614;2023-07-31T02:27:56;100874.63;;;16.34;85.07
64872;BME280;51351;51.450;6.614;2023-07-31T02:30:22;100880.72;;;16.35;84.60
64872;BME280;51351;51.450;6.614;2023-07-31T02:32:48;100871.97;;;16.34;85.02
64872;BME280;51351;51.450;6.614;2023-07-31T02:35:14;100878.91;;;16.35;84.50
64872;BME280;51351;51.450;6.614;2023-07-31T02:37:44;100867.88;;;16.32;84.15
64872;BME280;51351;51.450;6.614;2023-07-31T02:40:10;100874.00;;;16.32;84.69
64872;BME280;51351;51.450;6.614;2023-07-31T02:42:36;100870.53;;;16.32;84.74
64872;BME280;51351;51.450;6.614;2023-07-31T02:45:02;100868.72;;;16.32;84.64
64872;BME280;51351;51.450;6.614;2023-07-31T02:47:28;100866.88;;;16.33;84.51
64872;BME280;51351;51.450;6.614;2023-07-31T02:49:55;100862.28;;;16.35;84.48
64872;BME280;51351;51.450;6.614;2023-07-31T02:52:21;100857.16;;;16.33;84.85
64872;BME280;51351;51.450;6.614;2023-07-31T02:54:47;100847.63;;;16.32;84.82
64872;BME280;51351;51.450;6.614;2023-07-31T02:57:13;100857.34;;;16.32;84.56
64872;BME280;51351;51.450;6.614;2023-07-31T02:59:40;100841.53;;;16.32;84.33
64872;BME280;51351;51.450;6.614;2023-07-31T03:02:06;100841.34;;;16.33;84.39
64872;BME280;51351;51.450;6.614;2023-07-31T03:04:32;100853.53;;;16.34;84.36
64872;BME280;51351;51.450;6.614;2023-07-31T03:06:58;100852.72;;;16.34;84.71
64872;BME280;51351;51.450;6.614;2023-07-31T03:09:24;100849.09;;;16.35;85.00
64872;BME280;51351;51.450;6.614;2023-07-31T03:11:50;100848.25;;;16.34;84.35
64872;BME280;51351;51.450;6.614;2023-07-31T03:14:16;100849.09;;;16.35;84.67
64872;BME280;51351;51.450;6.614;2023-07-31T03:16:42;100844.81;;;16.34;84.50
64872;BME280;51351;51.450;6.614;2023-07-31T03:19:08;100843.97;;;16.33;84.64
64872;BME280;51351;51.450;6.614;2023-07-31T03:21:34;100842.00;;;16.35;84.31
64872;BME280;51351;51.450;6.614;2023-07-31T03:24:00;100841.63;;;16.38;84.37
64872;BME280;51351;51.450;6.614;2023-07-31T03:26:26;100845.09;;;16.39;84.83
64872;BME280;51351;51.450;6.614;2023-07-31T03:28:52;100844.78;;;16.42;84.34
64872;BME280;51351;51.450;6.614;2023-07-31T03:31:18;100845.47;;;16.44;84.27
64872;BME280;51351;51.450;6.614;2023-07-31T03:33:44;100848.09;;;16.44;84.34
64872;BME280;51351;51.450;6.614;2023-07-31T03:36:10;100850.75;;;16.44;84.64
64872;BME280;51351;51.450;6.614;2023-07-31T03:38:36;100839.19;;;16.45;84.40
64872;BME280;51351;51.450;6.614;2023-07-31T03:41:02;100840.81;;;16.46;84.23
64872;BME280;51351;51.450;6.614;2023-07-31T03:43:28;100846.09;;;16.46;84.45
64872;BME280;51351;51.450;6.614;2023-07-31T03:45:54;100840.47;;;16.49;84.28
64872;BME280;51351;51.450;6.614;2023-07-31T03:48:21;100835.69;;;16.52;84.46
64872;BME280;51351;51.450;6.614;2023-07-31T03:50:47;100834.69;;;16.53;84.29
64872;BME280;51351;51.450;6.614;2023-07-31T03:53:13;100842.44;;;16.55;84.03
64872;BME280;51351;51.450;6.614;2023-07-31T03:55:39;100838.00;;;16.55;84.39
64872;BME280;51351;51.450;6.614;2023-07-31T03:58:05;100830.88;;;16.56;84.05
64872;BME280;51351;51.450;6.614;2023-07-31T04:00:31;100826.09;;;16.59;84.00
64872;BME280;51351;51.450;6.614;2023-07-31T04:02:57;100825.75;;;16.62;84.18
64872;BME280;51351;51.450;6.614;2023-07-31T04:05:23;100828.38;;;16.62;84.40
64872;BME280;51351;51.450;6.614;2023-07-31T04:07:49;100822.09;;;16.63;84.20
64872;BME280;51351;51.450;6.614;2023-07-31T04:10:15;100815.81;;;16.64;84.55
64872;BME280;51351;51.450;6.614;2023-07-31T04:12:41;100816.66;;;16.65;83.98
64872;BME280;51351;51.450;6.614;2023-07-31T04:15:07;100816.50;;;16.66;84.25
64872;BME280;51351;51.450;6.614;2023-07-31T04:17:33;100819.97;;;16.67;84.25
64872;BME280;51351;51.450;6.614;2023-07-31T04:19:59;100812.22;;;16.65;84.24
64872;BME280;51351;51.450;6.614;2023-07-31T04:22:25;100811.88;;;16.68;84.01
64872;BME280;51351;51.450;6.614;2023-07-31T04:24:51;100812.66;;;16.69;84.42
64872;BME280;51351;51.450;6.614;2023-07-31T04:27:17;100800.31;;;16.69;84.35
64872;BME280;51351;51.450;6.614;2023-07-31T04:29:43;100810.53;;;16.73;84.25
64872;BME280;51351;51.450;6.614;2023-07-31T04:32:11;100801.59;;;16.73;83.88
64872;BME280;51351;51.450;6.614;2023-07-31T04:34:37;100802.44;;;16.74;84.44
64872;BME280;51351;51.450;6.614;2023-07-31T04:37:03;100800.44;;;16.76;83.90
64872;BME280;51351;51.450;6.614;2023-07-31T04:39:29;100799.44;;;16.77;84.32
64872;BME280;51351;51.450;6.614;2023-07-31T04:41:55;100800.91;;;16.80;84.10
64872;BME280;51351;51.450;6.614;2023-07-31T04:44:21;100794.63;;;16.81;84.11
64872;BME280;51351;51.450;6.614;2023-07-31T04:46:47;100801.38;;;16.83;83.79
64872;BME280;51351;51.450;6.614;2023-07-31T04:49:13;100791.47;;;16.85;83.89
64872;BME280;51351;51.450;6.614;2023-07-31T04:51:39;100795.56;;;16.88;84.02
64872;BME280;51351;51.450;6.614;2023-07-31T04:54:05;100786.69;;;16.89;83.64
64872;BME280;51351;51.450;6.614;2023-07-31T04:56:31;100783.03;;;16.90;84.02
64872;BME280;51351;51.450;6.614;2023-07-31T04:58:57;100784.66;;;16.91;83.67
64872;BME280;51351;51.450;6.614;2023-07-31T05:01:23;100771.28;;;16.92;83.80
64872;BME280;51351;51.450;6.614;2023-07-31T05:03:50;100769.66;;;16.91;83.78
64872;BME280;51351;51.450;6.614;2023-07-31T05:06:16;100771.63;;;16.89;83.96
64872;BME280;51351;51.450;6.614;2023-07-31T05:08:42;100765.91;;;16.86;83.47
64872;BME280;51351;51.450;6.614;2023-07-31T05:11:08;100768.91;;;16.83;84.07
64872;BME280;51351;51.450;6.614;2023-07-31T05:13:34;100768.91;;;16.83;83.85
64872;BME280;51351;51.450;6.614;2023-07-31T05:16:00;100758.34;;;16.83;84.20
64872;BME280;51351;51.450;6.614;2023-07-31T05:18:26;100767.25;;;16.82;83.97
64872;BME280;51351;51.450;6.614;2023-07-31T05:20:52;100773.53;;;16.81;83.99
64872;BME280;51351;51.450;6.614;2023-07-31T05:23:18;100761.34;;;16.80;84.07
64872;BME280;51351;51.450;6.614;2023-07-31T05:25:44;100767.44;;;16.80;84.34
64872;BME280;51351;51.450;6.614;2023-07-31T05:28:10;100762.16;;;16.80;84.69
64872;BME280;51351;51.450;6.614;2023-07-31T05:30:36;100754.88;;;16.82;85.13
64872;BME280;51351;51.450;6.614;2023-07-31T05:33:02;100755.53;;;16.84;84.60
64872;BME280;51351;51.450;6.614;2023-07-31T05:35:28;100757.00;;;16.87;84.23
64872;BME280;51351;51.450;6.614;2023-07-31T05:37:54;100745.44;;;16.88;84.67
64872;BME280;51351;51.450;6.614;2023-07-31T05:40:20;100745.09;;;16.91;84.35
64872;BME280;51351;51.450;6.614;2023-07-31T05:42:46;100742.09;;;16.94;84.17
64872;BME280;51351;51.450;6.614;2023-07-31T05:45:12;100733.66;;;16.98;84.41
64872;BME280;51351;51.450;6.614;2023-07-31T05:47:39;100741.22;;;17.01;84.49
64872;BME280;51351;51.450;6.614;2023-07-31T05:50:05;100736.75;;;17.02;84.42
64872;BME280;51351;51.450;6.614;2023-07-31T05:52:31;100727.31;;;17.07;84.41
64872;BME280;51351;51.450;6.614;2023-07-31T05:54:57;100719.84;;;17.11;84.08
64872;BME280;51351;51.450;6.614;2023-07-31T05:57:23;100714.66;;;17.17;84.04
64872;BME280;51351;51.450;6.614;2023-07-31T05:59:49;100713.13;;;17.23;83.97
64872;BME280;51351;51.450;6.614;2023-07-31T06:02:15;100711.31;;;17.23;84.12
64872;BME280;51351;51.450;6.614;2023-07-31T06:04:41;100714.94;;;17.22;83.91
64872;BME280;51351;51.450;6.614;2023-07-31T06:07:07;100716.31;;;17.18;84.09
64872;BME280;51351;51.450;6.614;2023-07-31T06:09:33;100711.56;;;17.14;84.34
64872;BME280;51351;51.450;6.614;2023-07-31T06:11:59;100721.31;;;17.13;84.27
64872;BME280;51351;51.450;6.614;2023-07-31T06:14:25;100717.38;;;17.09;84.53
64872;BME280;51351;51.450;6.614;2023-07-31T06:16:51;100711.66;;;17.06;84.49
64872;BME280;51351;51.450;6.614;2023-07-31T06:19:17;100720.53;;;17.05;84.91
64872;BME280;51351;51.450;6.614;2023-07-31T06:21:43;100729.47;;;17.04;84.74
64872;BME280;51351;51.450;6.614;2023-07-31T06:24:10;100724.00;;;17.05;85.20
64872;BME280;51351;51.450;6.614;2023-07-31T06:26:37;100722.03;;;17.07;85.11
64872;BME280;51351;51.450;6.614;2023-07-31T06:29:03;100721.00;;;17.08;85.29
64872;BME280;51351;51.450;6.614;2023-07-31T06:31:29;100719.38;;;17.07;85.23
64872;BME280;51351;51.450;6.614;2023-07-31T06:33:56;100714.09;;;17.07;85.62
64872;BME280;51351;51.450;6.614;2023-07-31T06:36:22;100720.19;;;17.08;85.29
64872;BME280;51351;51.450;6.614;2023-07-31T06:38:48;100723.00;;;17.06;85.52
64872;BME280;51351;51.450;6.614;2023-07-31T06:41:14;100719.38;;;17.07;85.41
64872;BME280;51351;51.450;6.614;2023-07-31T06:43:40;100720.00;;;17.09;86.09
64872;BME280;51351;51.450;6.614;2023-07-31T06:46:06;100715.03;;;17.14;85.88
64872;BME280;51351;51.450;6.614;2023-07-31T06:48:33;100705.47;;;17.13;85.46
64872;BME280;51351;51.450;6.614;2023-07-31T06:51:00;100720.19;;;17.08;85.27
64872;BME280;51351;51.450;6.614;2023-07-31T06:53:26;100715.44;;;17.03;85.49
64872;BME280;51351;51.450;6.614;2023-07-31T06:55:52;100712.72;;;16.97;86.20
64872;BME280;51351;51.450;6.614;2023-07-31T06:58:18;100716.34;;;16.96;86.28
64872;BME280;51351;51.450;6.614;2023-07-31T07:00:44;100712.88;;;16.95;85.77
64872;BME280;51351;51.450;6.614;2023-07-31T07:03:10;100715.69;;;16.94;86.10
64872;BME280;51351;51.450;6.614;2023-07-31T07:05:36;100719.53;;;16.91;86.47
64872;BME280;51351;51.450;6.614;2023-07-31T07:08:02;100707.34;;;16.90;86.14
64872;BME280;51351;51.450;6.614;2023-07-31T07:10:29;100707.97;;;16.92;86.36
64872;BME280;51351;51.450;6.614;2023-07-31T07:12:55;100710.25;;;16.95;86.72
64872;BME280;51351;51.450;6.614;2023-07-31T07:15:21;100700.53;;;16.96;86.18
64872;BME280;51351;51.450;6.614;2023-07-31T07:17:47;100700.34;;;16.97;85.90
64872;BME280;51351;51.450;6.614;2023-07-31T07:20:13;100703.97;;;16.96;86.21
64872;BME280;51351;51.450;6.614;2023-07-31T07:22:39;100685.84;;;16.93;86.88
64872;BME280;51351;51.450;6.614;2023-07-31T07:25:05;100692.44;;;16.97;86.76
64872;BME280;51351;51.450;6.614;2023-07-31T07:27:33;100690.06;;;17.02;87.20
64872;BME280;51351;51.450;6.614;2023-07-31T07:29:59;100686.06;;;17.06;86.44
64872;BME280;51351;51.450;6.614;2023-07-31T07:32:25;100678.69;;;17.02;86.62
64872;BME280;51351;51.450;6.614;2023-07-31T07:34:51;100690.88;;;17.03;86.28
64872;BME280;51351;51.450;6.614;2023-07-31T07:37:17;100688.25;;;17.03;86.68
64872;BME280;51351;51.450;6.614;2023-07-31T07:39:44;100687.59;;;17.01;86.32
64872;BME280;51351;51.450;6.614;2023-07-31T07:42:10;100690.78;;;16.96;86.65
64872;BME280;51351;51.450;6.614;2023-07-31T07:44:35;100676.66;;;16.89;86.69
64872;BME280;51351;51.450;6.614;2023-07-31T07:47:02;100692.22;;;16.84;86.29
64872;BME280;51351;51.450;6.614;2023-07-31T07:49:28;100678.91;;;16.77;86.45
64872;BME280;51351;51.450;6.614;2023-07-31T07:51:54;100685.00;;;16.78;86.88
64872;BME280;51351;51.450;6.614;2023-07-31T07:54:20;100686.47;;;16.81;87.12
64872;BME280;51351;51.450;6.614;2023-07-31T07:56:47;100683.94;;;16.87;87.26
64872;BME280;51351;51.450;6.614;2023-07-31T07:59:13;100675.94;;;16.95;86.97
64872;BME280;51351;51.450;6.614;2023-07-31T08:01:39;100664.69;;;17.01;87.16
64872;BME280;51351;51.450;6.614;2023-07-31T08:04:05;100668.75;;;17.04;86.51
64872;BME280;51351;51.450;6.614;2023-07-31T08:06:31;100679.31;;;17.04;86.56
64872;BME280;51351;51.450;6.614;2023-07-31T08:08:57;100676.25;;;17.00;86.13
64872;BME280;51351;51.450;6.614;2023-07-31T08:11:23;100674.31;;;16.94;86.22
64872;BME280;51351;51.450;6.614;2023-07-31T08:13:49;100665.91;;;16.91;86.62
64872;BME280;51351;51.450;6.614;2023-07-31T08:16:15;100671.03;;;16.92;86.57
64872;BME280;51351;51.450;6.614;2023-07-31T08:18:42;100666.56;;;16.93;86.86
64872;BME280;51351;51.450;6.614;2023-07-31T08:21:10;100659.09;;;16.96;86.50
64872;BME280;51351;51.450;6.614;2023-07-31T08:23:36;100656.41;;;17.04;86.63
64872;BME280;51351;51.450;6.614;2023-07-31T08:26:02;100656.78;;;17.16;86.83
64872;BME280;51351;51.450;6.614;2023-07-31T08:28:28;100657.50;;;17.24;86.93
64872;BME280;51351;51.450;6.614;2023-07-31T08:30:54;100655.69;;;17.25;86.43
64872;BME280;51351;51.450;6.614;2023-07-31T08:33:20;100665.25;;;17.26;86.42
64872;BME280;51351;51.450;6.614;2023-07-31T08:35:46;100661.34;;;17.22;85.95
64872;BME280;51351;51.450;6.614;2023-07-31T08:38:13;100669.50;;;17.12;85.95
64872;BME280;51351;51.450;6.614;2023-07-31T08:40:39;100656.97;;;17.14;85.92
64872;BME280;51351;51.450;6.614;2023-07-31T08:43:05;100661.88;;;17.17;85.88
64872;BME280;51351;51.450;6.614;2023-07-31T08:45:32;100657.69;;;17.23;86.54
64872;BME280;51351;51.450;6.614;2023-07-31T08:47:58;100664.16;;;17.20;85.86
64872;BME280;51351;51.450;6.614;2023-07-31T08:50:24;100659.94;;;17.11;85.77
64872;BME280;51351;51.450;6.614;2023-07-31T08:52:51;100666.25;;;17.10;85.92
64872;BME280;51351;51.450;6.614;2023-07-31T08:55:18;100659.47;;;17.08;86.18
64872;BME280;51351;51.450;6.614;2023-07-31T08:57:51;100663.97;;;17.07;86.50
64872;BME280;51351;51.450;6.614;2023-07-31T09:00:18;100669.41;;;17.06;86.18
64872;BME280;51351;51.450;6.614;2023-07-31T09:05:17;100669.59;;;17.04;86.50
64872;BME280;51351;51.450;6.614;2023-07-31T09:07:47;100663.78;;;17.09;86.54
64872;BME280;51351;51.450;6.614;2023-07-31T09:10:13;100665.22;;;17.11;86.55
64872;BME280;51351;51.450;6.614;2023-07-31T09:12:39;100665.25;;;17.26;86.60
64872;BME280;51351;51.450;6.614;2023-07-31T09:15:05;100664.81;;;17.51;86.92
64872;BME280;51351;51.450;6.614;2023-07-31T09:17:36;100662.91;;;17.60;85.87
64872;BME280;51351;51.450;6.614;2023-07-31T09:20:16;100671.19;;;17.57;85.09
64872;BME280;51351;51.450;6.614;2023-07-31T09:22:43;100659.69;;;17.64;85.79
64872;BME280;51351;51.450;6.614;2023-07-31T09:25:23;100657.78;;;17.73;84.78
64872;BME280;51351;51.450;6.614;2023-07-31T09:30:16;100653.13;;;17.75;84.77
64872;BME280;51351;51.450;6.614;2023-07-31T09:32:44;100648.75;;;17.82;84.77
64872;BME280;51351;51.450;6.614;2023-07-31T09:37:53;100645.81;;;17.91;84.84
64872;BME280;51351;51.450;6.614;2023-07-31T09:40:33;100645.56;;;17.86;84.68
64872;BME280;51351;51.450;6.614;2023-07-31T09:43:03;100643.09;;;17.85;84.44
64872;BME280;51351;51.450;6.614;2023-07-31T09:45:35;100641.06;;;17.87;84.82
64872;BME280;51351;51.450;6.614;2023-07-31T09:48:12;100638.31;;;17.95;85.01
64872;BME280;51351;51.450;6.614;2023-07-31T09:50:40;100639.97;;;17.96;85.04
64872;BME280;51351;51.450;6.614;2023-07-31T09:53:07;100641.59;;;17.97;84.80
64872;BME280;51351;51.450;6.614;2023-07-31T09:55:33;100635.50;;;17.96;84.76
64872;BME280;51351;51.450;6.614;2023-07-31T09:58:04;100636.34;;;17.82;84.67
64872;BME280;51351;51.450;6.614;2023-07-31T10:00:30;100635.53;;;17.82;84.85
64872;BME280;51351;51.450;6.614;2023-07-31T10:03:04;100638.69;;;17.92;85.37
64872;BME280;51351;51.450;6.614;2023-07-31T10:05:38;100637.38;;;18.02;85.29
64872;BME280;51351;51.450;6.614;2023-07-31T10:08:07;100632.88;;;18.17;85.03
64872;BME280;51351;51.450;6.614;2023-07-31T10:10:36;100633.69;;;18.18;84.49
64872;BME280;51351;51.450;6.614;2023-07-31T10:13:04;100631.47;;;18.21;84.55
64872;BME280;51351;51.450;6.614;2023-07-31T10:15:31;100624.19;;;18.23;84.85
64872;BME280;51351;51.450;6.614;2023-07-31T10:17:58;100624.59;;;18.27;83.91
64872;BME280;51351;51.450;6.614;2023-07-31T10:20:26;100624.88;;;18.32;84.61
64872;BME280;51351;51.450;6.614;2023-07-31T10:22:54;100627.88;;;18.43;84.20
64872;BME280;51351;51.450;6.614;2023-07-31T10:25:21;100634.59;;;18.46;83.40
64872;BME280;51351;51.450;6.614;2023-07-31T10:27:49;100635.66;;;18.51;83.60
64872;BME280;51351;51.450;6.614;2023-07-31T10:30:17;100630.06;;;18.61;83.74
64872;BME280;51351;51.450;6.614;2023-07-31T10:32:45;100630.94;;;18.68;83.72
64872;BME280;51351;51.450;6.614;2023-07-31T10:35:12;100616.59;;;18.83;82.90
64872;BME280;51351;51.450;6.614;2023-07-31T10:42:52;100624.84;;;19.29;81.16
64872;BME280;51351;51.450;6.614;2023-07-31T10:47:58;100622.09;;;19.16;81.38
64872;BME280;51351;51.450;6.614;2023-07-31T10:50:27;100622.81;;;19.03;81.82
64872;BME280;51351;51.450;6.614;2023-07-31T10:52:55;100614.25;;;19.01;82.12
64872;BME280;51351;51.450;6.614;2023-07-31T10:57:57;100616.41;;;18.85;81.23
64872;BME280;51351;51.450;6.614;2023-07-31T11:00:29;100615.72;;;18.76;80.29
64872;BME280;51351;51.450;6.614;2023-07-31T11:03:09;100608.81;;;18.75;81.65
64872;BME280;51351;51.450;6.614;2023-07-31T11:08:32;100614.50;;;18.79;81.69
64872;BME280;51351;51.450;6.614;2023-07-31T11:13:31;100616.25;;;18.65;81.54
64872;BME280;51351;51.450;6.614;2023-07-31T11:15:58;100613.16;;;18.62;81.60
64872;BME280;51351;51.450;6.614;2023-07-31T11:18:26;100616.88;;;18.67;81.64
64872;BME280;51351;51.450;6.614;2023-07-31T11:20:53;100622.22;;;18.74;81.46
64872;BME280;51351;51.450;6.614;2023-07-31T11:23:20;100627.94;;;18.77;81.64
64872;BME280;51351;51.450;6.614;2023-07-31T11:25:46;100617.91;;;18.73;81.29
64872;BME280;51351;51.450;6.614;2023-07-31T11:28:14;100618.31;;;18.70;81.83
64872;BME280;51351;51.450;6.614;2023-07-31T11:30:41;100617.69;;;18.68;82.19
64872;BME280;51351;51.450;6.614;2023-07-31T11:33:09;100606.91;;;18.69;82.42
64872;BME280;51351;51.450;6.614;2023-07-31T11:35:41;100617.50;;;18.69;82.56
64872;BME280;51351;51.450;6.614;2023-07-31T11:38:07;100608.38;;;18.78;82.55
64872;BME280;51351;51.450;6.614;2023-07-31T11:40:43;100613.56;;;18.86;81.77
64872;BME280;51351;51.450;6.614;2023-07-31T11:43:10;100607.06;;;18.89;81.98
64872;BME280;51351;51.450;6.614;2023-07-31T11:45:45;100605.50;;;19.01;82.37
64872;BME280;51351;51.450;6.614;2023-07-31T11:48:22;100605.91;;;19.04;81.37
64872;BME280;51351;51.450;6.614;2023-07-31T11:50:50;100612.50;;;19.15;81.56
64872;BME280;51351;51.450;6.614;2023-07-31T11:53:20;100613.56;;;19.21;81.20
64872;BME280;51351;51.450;6.614;2023-07-31T11:55:48;100606.63;;;19.20;81.28
64872;BME280;51351;51.450;6.614;2023-07-31T11:58:15;100609.97;;;19.00;81.11
64872;BME280;51351;51.450;6.614;2023-07-31T12:00:41;100602.97;;;18.86;81.00
64872;BME280;51351;51.450;6.614;2023-07-31T12:03:07;100602.63;;;18.68;81.83
64872;BME280;51351;51.450;6.614;2023-07-31T12:05:33;100610.13;;;18.65;81.72
64872;BME280;51351;51.450;6.614;2023-07-31T12:08:00;100604.41;;;18.61;82.35
64872;BME280;51351;51.450;6.614;2023-07-31T12:10:30;100598.34;;;18.67;81.91
64872;BME280;51351;51.450;6.614;2023-07-31T12:15:39;100590.69;;;19.13;80.63
64872;BME280;51351;51.450;6.614;2023-07-31T12:18:06;100586.00;;;19.43;81.85
64872;BME280;51351;51.450;6.614;2023-07-31T12:20:33;100586.47;;;19.59;81.19
64872;BME280;51351;51.450;6.614;2023-07-31T12:22:59;100578.38;;;19.87;80.03
64872;BME280;51351;51.450;6.614;2023-07-31T12:25:32;100575.81;;;20.13;78.20
64872;BME280;51351;51.450;6.614;2023-07-31T12:28:04;100577.25;;;20.15;79.47
64872;BME280;51351;51.450;6.614;2023-07-31T12:30:34;100576.78;;;20.05;78.34
64872;BME280;51351;51.450;6.614;2023-07-31T12:33:04;100574.75;;;19.94;79.28
64872;BME280;51351;51.450;6.614;2023-07-31T12:35:36;100580.00;;;19.75;78.41
64872;BME280;51351;51.450;6.614;2023-07-31T12:38:02;100583.00;;;19.65;79.13
64872;BME280;51351;51.450;6.614;2023-07-31T12:40:32;100578.50;;;19.53;79.14
64872;BME280;51351;51.450;6.614;2023-07-31T12:43:01;100572.75;;;19.43;79.62
64872;BME280;51351;51.450;6.614;2023-07-31T12:45:28;100575.81;;;19.46;79.61
64872;BME280;51351;51.450;6.614;2023-07-31T12:47:54;100576.19;;;19.37;79.74
64872;BME280;51351;51.450;6.614;2023-07-31T12:50:23;100576.75;;;19.26;79.91
64872;BME280;51351;51.450;6.614;2023-07-31T12:52:49;100575.69;;;19.20;80.37
64872;BME280;51351;51.450;6.614;2023-07-31T12:55:15;100566.91;;;19.20;80.46
64872;BME280;51351;51.450;6.614;2023-07-31T12:57:45;100553.97;;;19.31;80.60
64872;BME280;51351;51.450;6.614;2023-07-31T13:00:15;100553.81;;;19.52;80.44
64872;BME280;51351;51.450;6.614;2023-07-31T13:02:45;100542.88;;;19.68;79.98
64872;BME280;51351;51.450;6.614;2023-07-31T13:05:11;100531.47;;;19.81;78.86
64872;BME280;51351;51.450;6.614;2023-07-31T13:07:37;100538.81;;;19.79;78.54
64872;BME280;51351;51.450;6.614;2023-07-31T13:10:03;100528.38;;;19.71;78.91
64872;BME280;51351;51.450;6.614;2023-07-31T13:12:29;100524.31;;;19.62;78.88
64872;BME280;51351;51.450;6.614;2023-07-31T13:14:55;100525.66;;;19.45;79.49
64872;BME280;51351;51.450;6.614;2023-07-31T13:17:21;100522.56;;;19.35;79.94
64872;BME280;51351;51.450;6.614;2023-07-31T13:19:47;100527.59;;;19.23;79.59
64872;BME280;51351;51.450;6.614;2023-07-31T13:22:13;100511.69;;;19.17;80.08